sensor_id;sensor_type;location;lat;lon;timestamp;temperature;humidity
9998;DHT22;5038;53.064;8.624;2023-09-08T00:02:26;20.70;99.90
9998;DHT22;5038;53.064;8.624;2023-09-08T00:04:55;20.70;99.90
9998;DHT22;5038;53.064;8.624;2023-09-08T00:07:23;20.60;99.90
9998;DHT22;5038;53.064;8.624;2023-09-08T00:09:52;20.50;99.90
9998;DHT22;5038;53.064;8.624;2023-09-08T00:12:21;20.50;99.90
9998;DHT22;5038;53.064;8.624;2023-09-08T00:14:49;20.50;99.90
9998;DHT22;5038;53.064;8.624;2023-09-08T00:17:17;20.40;99.90
9998;DHT22;5038;53.064;8.624;2023-09-08T00:19:45;20.40;99.90
9998;DHT22;5038;53.064;8.624;2023-09-08T00:22:13;20.30;99.90
9998;DHT22;5038;53.064;8.624;2023-09-08T00:24:41;20.30;99.90
9998;DHT22;5038;53.064;8.624;2023-09-08T00:27:11;20.30;99.90
9998;DHT22;5038;53.064;8.624;2023-09-08T00:29:39;20.30;99.90
9998;DHT22;5038;53.064;8.624;2023-09-08T00:32:07;20.20;99.90
9998;DHT22;5038;53.064;8.624;2023-09-08T00:34:38;20.20;99.90
9998;DHT22;5038;53.064;8.624;2023-09-08T00:37:07;20.20;99.90
9998;DHT22;5038;53.064;8.624;2023-09-08T00:39:37;20.20;99.90
9998;DHT22;5038;53.064;8.624;2023-09-08T00:42:06;20.20;99.90
9998;DHT22;5038;53.064;8.624;2023-09-08T00:44:35;20.10;99.90
9998;DHT22;5038;53.064;8.624;2023-09-08T00:47:04;20.10;99.90
9998;DHT22;5038;53.064;8.624;2023-09-08T00:49:33;20.10;99.90
9998;DHT22;5038;53.064;8.624;2023-09-08T00:52:01;20.10;99.90
9998;DHT22;5038;53.064;8.624;2023-09-08T00:54:30;20.00;99.90
9998;DHT22;5038;53.064;8.624;2023-09-08T00:57:01;20.00;99.90
9998;DHT22;5038;53.064;8.624;2023-09-08T00:59:31;19.90;99.90
9998;DHT22;5038;53.064;8.624;2023-09-08T01:02:02;19.90;99.90
9998;DHT22;5038;53.064;8.624;2023-09-08T01:04:31;19.80;99.90
9998;DHT22;5038;53.064;8.624;2023-09-08T01:07:00;19.80;99.90
9998;DHT22;5038;53.064;8.624;2023-09-08T01:09:30;19.80;99.90
9998;DHT22;5038;53.064;8.624;2023-09-08T01:11:58;19.70;99.90
9998;DHT22;5038;53.064;8.624;2023-09-08T01:14:29;19.70;99.90
9998;DHT22;5038;53.064;8.624;2023-09-08T01:16:57;19.60;99.90
9998;DHT22;5038;53.064;8.624;2023-09-08T01:19:27;19.60;99.90
9998;DHT22;5038;53.064;8.624;2023-09-08T01:25:22;19.60;99.90
9998;DHT22;5038;53.064;8.624;2023-09-08T01:27:52;19.50;99.90
9998;DHT22;5038;53.064;8.624;2023-09-08T01:30:22;19.50;99.90
9998;DHT22;5038;53.064;8.624;2023-09-08T01:32:51;19.40;99.90
9998;DHT22;5038;53.064;8.624;2023-09-08T01:35:20;19.40;99.90
9998;DHT22;5038;53.064;8.624;2023-09-08T01:37:49;19.40;99.90
9998;DHT22;5038;53.064;8.624;2023-09-08T01:40:17;19.40;99.90
9998;DHT22;5038;53.064;8.624;2023-09-08T01:42:48;19.30;99.90
9998;DHT22;5038;53.064;8.624;2023-09-08T01:45:16;19.30;99.90
9998;DHT22;5038;53.064;8.624;2023-09-08T01:47:45;19.20;99.90
9998;DHT22;5038;53.064;8.624;2023-09-08T01:50:13;19.20;99.90
9998;DHT22;5038;53.064;8.624;2023-09-08T01:52:48;19.20;99.90
9998;DHT22;5038;53.064;8.624;2023-09-08T01:55:16;19.10;99.90
9998;DHT22;5038;53.064;8.624;2023-09-08T01:57:44;19.10;99.90
9998;DHT22;5038;53.064;8.624;2023-09-08T02:00:15;19.00;99.90
9998;DHT22;5038;53.064;8.624;2023-09-08T02:02:44;19.00;99.90
9998;DHT22;5038;53.064;8.624;2023-09-08T02:05:12;19.00;99.90
9998;DHT22;5038;53.064;8.624;2023-09-08T02:07:41;19.00;99.90
9998;DHT22;5038;53.064;8.624;2023-09-08T02:10:10;18.90;99.90
9998;DHT22;5038;53.064;8.624;2023-09-08T02:12:38;18.90;99.90
9998;DHT22;5038;53.064;8.624;2023-09-08T02:15:07;18.90;99.90
9998;DHT22;5038;53.064;8.624;2023-09-08T02:17:39;18.80;99.90
9998;DHT22;5038;53.064;8.624;2023-09-08T02:20:09;18.80;99.90
9998;DHT22;5038;53.064;8.624;2023-09-08T02:22:38;18.80;99.90
9998;DHT22;5038;53.064;8.624;2023-09-08T02:25:07;18.80;99.90
9998;DHT22;5038;53.064;8.624;2023-09-08T02:27:36;18.70;99.90
9998;DHT22;5038;53.064;8.624;2023-09-08T02:30:05;18.70;99.90
9998;DHT22;5038;53.064;8.624;2023-09-08T02:32:34;18.70;99.90
9998;DHT22;5038;53.064;8.624;2023-09-08T02:35:06;18.70;99.90
9998;DHT22;5038;53.064;8.624;2023-09-08T02:37:35;18.60;99.90
9998;DHT22;5038;53.064;8.624;2023-09-08T02:40:04;18.60;99.90
9998;DHT22;5038;53.064;8.624;2023-09-08T02:42:36;18.60;99.90
9998;DHT22;5038;53.064;8.624;2023-09-08T02:45:06;18.60;99.90
9998;DHT22;5038;53.064;8.624;2023-09-08T02:47:34;18.60;99.90
9998;DHT22;5038;53.064;8.624;2023-09-08T02:50:05;18.60;99.90
9998;DHT22;5038;53.064;8.624;2023-09-08T02:52:34;18.60;99.90
9998;DHT22;5038;53.064;8.624;2023-09-08T02:55:03;18.60;99.90
9998;DHT22;5038;53.064;8.624;2023-09-08T02:57:31;18.50;99.90
9998;DHT22;5038;53.064;8.624;2023-09-08T02:59:59;18.50;99.90
9998;DHT22;5038;53.064;8.624;2023-09-08T03:02:28;18.50;99.90
9998;DHT22;5038;53.064;8.624;2023-09-08T03:04:56;18.50;99.90
9998;DHT22;5038;53.064;8.624;2023-09-08T03:07:27;18.50;99.90
9998;DHT22;5038;53.064;8.624;2023-09-08T03:09:55;18.40;99.90
9998;DHT22;5038;53.064;8.624;2023-09-08T03:12:23;18.40;99.90
9998;DHT22;5038;53.064;8.624;2023-09-08T03:14:51;18.30;99.90
9998;DHT22;5038;53.064;8.624;2023-09-08T03:17:20;18.30;99.90
9998;DHT22;5038;53.064;8.624;2023-09-08T03:19:48;18.30;99.90
9998;DHT22;5038;53.064;8.624;2023-09-08T03:22:16;18.30;99.90
9998;DHT22;5038;53.064;8.624;2023-09-08T03:24:47;18.30;99.90
9998;DHT22;5038;53.064;8.624;2023-09-08T03:27:15;18.20;99.90
9998;DHT22;5038;53.064;8.624;2023-09-08T03:29:43;18.20;99.90
9998;DHT22;5038;53.064;8.624;2023-09-08T03:32:11;18.20;99.90
9998;DHT22;5038;53.064;8.624;2023-09-08T03:34:40;18.20;99.90
9998;DHT22;5038;53.064;8.624;2023-09-08T03:37:08;18.20;99.90
9998;DHT22;5038;53.064;8.624;2023-09-08T03:39:37;18.10;99.90
9998;DHT22;5038;53.064;8.624;2023-09-08T03:42:06;18.10;99.90
9998;DHT22;5038;53.064;8.624;2023-09-08T03:44:34;18.10;99.90
9998;DHT22;5038;53.064;8.624;2023-09-08T03:47:03;18.10;99.90
9998;DHT22;5038;53.064;8.624;2023-09-08T03:49:32;18.10;99.90
9998;DHT22;5038;53.064;8.624;2023-09-08T03:52:01;18.10;99.90
9998;DHT22;5038;53.064;8.624;2023-09-08T03:54:30;18.10;99.90
9998;DHT22;5038;53.064;8.624;2023-09-08T03:56:58;18.00;99.90
9998;DHT22;5038;53.064;8.624;2023-09-08T03:59:27;18.00;99.90
9998;DHT22;5038;53.064;8.624;2023-09-08T04:01:56;18.00;99.90
9998;DHT22;5038;53.064;8.624;2023-09-08T04:04:24;18.00;99.90
9998;DHT22;5038;53.064;8.624;2023-09-08T04:06:52;18.00;99.90
9998;DHT22;5038;53.064;8.624;2023-09-08T04:09:20;17.90;99.90
9998;DHT22;5038;53.064;8.624;2023-09-08T04:11:48;17.90;99.90
9998;DHT22;5038;53.064;8.624;2023-09-08T04:14:17;17.90;99.90
9998;DHT22;5038;53.064;8.624;2023-09-08T04:16:47;17.90;99.90
9998;DHT22;5038;53.064;8.624;2023-09-08T04:19:15;17.90;99.90
9998;DHT22;5038;53.064;8.624;2023-09-08T04:21:44;17.80;99.90
9998;DHT22;5038;53.064;8.624;2023-09-08T04:24:12;17.80;99.90
9998;DHT22;5038;53.064;8.624;2023-09-08T04:26:40;17.80;99.90
9998;DHT22;5038;53.064;8.624;2023-09-08T04:29:08;17.80;99.90
9998;DHT22;5038;53.064;8.624;2023-09-08T04:31:37;17.80;99.90
9998;DHT22;5038;53.064;8.624;2023-09-08T04:34:06;17.70;99.90
9998;DHT22;5038;53.064;8.624;2023-09-08T04:36:35;17.70;99.90
9998;DHT22;5038;53.064;8.624;2023-09-08T04:39:03;17.70;99.90
9998;DHT22;5038;53.064;8.624;2023-09-08T04:41:31;17.70;99.90
9998;DHT22;5038;53.064;8.624;2023-09-08T04:44:00;17.70;99.90
9998;DHT22;5038;53.064;8.624;2023-09-08T04:46:28;17.70;99.90
9998;DHT22;5038;53.064;8.624;2023-09-08T04:48:56;17.60;99.90
9998;DHT22;5038;53.064;8.624;2023-09-08T04:51:26;17.60;99.90
9998;DHT22;5038;53.064;8.624;2023-09-08T04:53:54;17.70;99.90
9998;DHT22;5038;53.064;8.624;2023-09-08T04:56:22;17.60;99.90
9998;DHT22;5038;53.064;8.624;2023-09-08T04:58:50;17.60;99.90
9998;DHT22;5038;53.064;8.624;2023-09-08T05:01:19;17.60;99.90
9998;DHT22;5038;53.064;8.624;2023-09-08T05:03:48;17.60;99.90
9998;DHT22;5038;53.064;8.624;2023-09-08T05:06:17;17.50;99.90
9998;DHT22;5038;53.064;8.624;2023-09-08T05:08:47;17.60;99.90
9998;DHT22;5038;53.064;8.624;2023-09-08T05:11:17;17.50;99.90
9998;DHT22;5038;53.064;8.624;2023-09-08T05:13:46;17.50;99.90
9998;DHT22;5038;53.064;8.624;2023-09-08T05:16:14;17.50;99.90
9998;DHT22;5038;53.064;8.624;2023-09-08T05:18:50;17.50;99.90
9998;DHT22;5038;53.064;8.624;2023-09-08T05:21:19;17.50;99.90
9998;DHT22;5038;53.064;8.624;2023-09-08T05:23:48;17.50;99.90
9998;DHT22;5038;53.064;8.624;2023-09-08T05:26:16;17.50;99.90
9998;DHT22;5038;53.064;8.624;2023-09-08T05:28:44;17.50;99.90
9998;DHT22;5038;53.064;8.624;2023-09-08T05:31:13;17.50;99.90
9998;DHT22;5038;53.064;8.624;2023-09-08T05:33:41;17.50;99.90
9998;DHT22;5038;53.064;8.624;2023-09-08T05:36:10;17.50;99.90
9998;DHT22;5038;53.064;8.624;2023-09-08T05:38:42;17.50;99.90
9998;DHT22;5038;53.064;8.624;2023-09-08T05:41:13;17.40;99.90
9998;DHT22;5038;53.064;8.624;2023-09-08T05:43:41;17.50;99.90
9998;DHT22;5038;53.064;8.624;2023-09-08T05:46:10;17.50;99.90
9998;DHT22;5038;53.064;8.624;2023-09-08T05:48:41;17.50;99.90
9998;DHT22;5038;53.064;8.624;2023-09-08T05:51:09;17.50;99.90
9998;DHT22;5038;53.064;8.624;2023-09-08T05:53:37;17.50;99.90
9998;DHT22;5038;53.064;8.624;2023-09-08T05:56:07;17.50;99.90
9998;DHT22;5038;53.064;8.624;2023-09-08T05:58:38;17.50;99.90
9998;DHT22;5038;53.064;8.624;2023-09-08T06:01:07;17.50;99.90
9998;DHT22;5038;53.064;8.624;2023-09-08T06:03:35;17.50;99.90
9998;DHT22;5038;53.064;8.624;2023-09-08T06:06:04;17.50;99.90
9998;DHT22;5038;53.064;8.624;2023-09-08T06:08:32;17.50;99.90
9998;DHT22;5038;53.064;8.624;2023-09-08T06:11:01;17.60;99.90
9998;DHT22;5038;53.064;8.624;2023-09-08T06:13:32;17.70;99.90
9998;DHT22;5038;53.064;8.624;2023-09-08T06:16:01;17.80;99.90
9998;DHT22;5038;53.064;8.624;2023-09-08T06:18:30;17.90;99.90
9998;DHT22;5038;53.064;8.624;2023-09-08T06:20:59;18.00;99.90
9998;DHT22;5038;53.064;8.624;2023-09-08T06:23:28;18.20;99.90
9998;DHT22;5038;53.064;8.624;2023-09-08T06:25:56;18.30;99.90
9998;DHT22;5038;53.064;8.624;2023-09-08T06:28:29;18.40;99.90
9998;DHT22;5038;53.064;8.624;2023-09-08T06:30:58;18.60;99.90
9998;DHT22;5038;53.064;8.624;2023-09-08T06:33:27;18.80;99.90
9998;DHT22;5038;53.064;8.624;2023-09-08T06:35:56;18.90;99.90
9998;DHT22;5038;53.064;8.624;2023-09-08T06:38:24;19.00;99.90
9998;DHT22;5038;53.064;8.624;2023-09-08T06:40:52;19.10;99.90
9998;DHT22;5038;53.064;8.624;2023-09-08T06:43:20;19.30;99.90
9998;DHT22;5038;53.064;8.624;2023-09-08T06:46:00;19.40;99.90
9998;DHT22;5038;53.064;8.624;2023-09-08T06:48:30;19.50;99.90
9998;DHT22;5038;53.064;8.624;2023-09-08T06:50:58;19.60;99.90
9998;DHT22;5038;53.064;8.624;2023-09-08T06:53:27;19.70;99.90
9998;DHT22;5038;53.064;8.624;2023-09-08T06:55:55;19.80;99.90
9998;DHT22;5038;53.064;8.624;2023-09-08T06:58:24;19.90;99.90
9998;DHT22;5038;53.064;8.624;2023-09-08T07:00:53;20.00;99.90
9998;DHT22;5038;53.064;8.624;2023-09-08T07:03:22;20.10;99.90
9998;DHT22;5038;53.064;8.624;2023-09-08T07:05:53;20.20;99.90
9998;DHT22;5038;53.064;8.624;2023-09-08T07:08:22;20.20;99.90
9998;DHT22;5038;53.064;8.624;2023-09-08T07:10:52;20.30;99.90
9998;DHT22;5038;53.064;8.624;2023-09-08T07:13:21;20.30;99.90
9998;DHT22;5038;53.064;8.624;2023-09-08T07:15:50;20.30;99.90
9998;DHT22;5038;53.064;8.624;2023-09-08T07:18:18;20.30;99.90
9998;DHT22;5038;53.064;8.624;2023-09-08T07:20:47;20.30;99.90
9998;DHT22;5038;53.064;8.624;2023-09-08T07:23:18;20.30;99.90
9998;DHT22;5038;53.064;8.624;2023-09-08T07:25:47;20.30;99.90
9998;DHT22;5038;53.064;8.624;2023-09-08T07:28:16;20.30;99.90
9998;DHT22;5038;53.064;8.624;2023-09-08T07:30:48;20.30;99.90
9998;DHT22;5038;53.064;8.624;2023-09-08T07:33:17;20.30;99.90
9998;DHT22;5038;53.064;8.624;2023-09-08T07:35:46;20.30;99.90
9998;DHT22;5038;53.064;8.624;2023-09-08T07:38:15;20.30;99.90
9998;DHT22;5038;53.064;8.624;2023-09-08T07:40:44;20.30;99.90
9998;DHT22;5038;53.064;8.624;2023-09-08T07:43:14;20.40;99.90
9998;DHT22;5038;53.064;8.624;2023-09-08T07:45:43;20.40;99.90
9998;DHT22;5038;53.064;8.624;2023-09-08T07:48:11;20.40;99.90
9998;DHT22;5038;53.064;8.624;2023-09-08T07:50:40;20.50;99.90
9998;DHT22;5038;53.064;8.624;2023-09-08T07:53:08;20.60;99.90
9998;DHT22;5038;53.064;8.624;2023-09-08T07:55:36;20.70;99.90
9998;DHT22;5038;53.064;8.624;2023-09-08T07:58:07;20.80;99.90
9998;DHT22;5038;53.064;8.624;2023-09-08T08:00:36;20.90;99.90
9998;DHT22;5038;53.064;8.624;2023-09-08T08:03:05;21.00;99.90
9998;DHT22;5038;53.064;8.624;2023-09-08T08:05:34;21.10;99.90
9998;DHT22;5038;53.064;8.624;2023-09-08T08:08:02;21.30;99.90
9998;DHT22;5038;53.064;8.624;2023-09-08T08:10:30;21.40;99.90
9998;DHT22;5038;53.064;8.624;2023-09-08T08:12:59;21.50;99.90
9998;DHT22;5038;53.064;8.624;2023-09-08T08:15:36;21.60;99.90
9998;DHT22;5038;53.064;8.624;2023-09-08T08:18:05;21.70;99.90
9998;DHT22;5038;53.064;8.624;2023-09-08T08:20:34;21.80;99.90
9998;DHT22;5038;53.064;8.624;2023-09-08T08:23:03;21.90;99.90
9998;DHT22;5038;53.064;8.624;2023-09-08T08:25:31;22.00;99.90
9998;DHT22;5038;53.064;8.624;2023-09-08T08:28:00;22.10;99.90
9998;DHT22;5038;53.064;8.624;2023-09-08T08:30:29;22.20;99.90
9998;DHT22;5038;53.064;8.624;2023-09-08T08:33:00;22.30;99.90
9998;DHT22;5038;53.064;8.624;2023-09-08T08:35:29;22.40;99.90
9998;DHT22;5038;53.064;8.624;2023-09-08T08:37:58;22.50;99.90
9998;DHT22;5038;53.064;8.624;2023-09-08T08:40:26;22.60;99.90
9998;DHT22;5038;53.064;8.624;2023-09-08T08:42:55;22.70;99.90
9998;DHT22;5038;53.064;8.624;2023-09-08T08:45:29;22.70;99.90
9998;DHT22;5038;53.064;8.624;2023-09-08T08:47:59;22.90;99.90
9998;DHT22;5038;53.064;8.624;2023-09-08T08:50:28;22.90;99.90
9998;DHT22;5038;53.064;8.624;2023-09-08T08:52:57;23.00;99.90
9998;DHT22;5038;53.064;8.624;2023-09-08T08:55:27;23.10;99.90
9998;DHT22;5038;53.064;8.624;2023-09-08T08:58:02;23.20;99.90
9998;DHT22;5038;53.064;8.624;2023-09-08T09:00:34;23.30;99.90
9998;DHT22;5038;53.064;8.624;2023-09-08T09:03:06;23.40;99.90
9998;DHT22;5038;53.064;8.624;2023-09-08T09:05:42;23.50;99.90
9998;DHT22;5038;53.064;8.624;2023-09-08T09:08:31;23.60;99.90
9998;DHT22;5038;53.064;8.624;2023-09-08T09:11:00;23.60;99.90
9998;DHT22;5038;53.064;8.624;2023-09-08T09:13:29;23.70;99.90
9998;DHT22;5038;53.064;8.624;2023-09-08T09:15:58;23.80;99.90
9998;DHT22;5038;53.064;8.624;2023-09-08T09:18:31;23.90;99.90
9998;DHT22;5038;53.064;8.624;2023-09-08T09:21:01;24.00;99.90
9998;DHT22;5038;53.064;8.624;2023-09-08T09:23:30;24.00;99.90
9998;DHT22;5038;53.064;8.624;2023-09-08T09:25:59;24.20;99.90
9998;DHT22;5038;53.064;8.624;2023-09-08T09:28:28;24.30;99.90
9998;DHT22;5038;53.064;8.624;2023-09-08T09:30:57;24.30;99.90
9998;DHT22;5038;53.064;8.624;2023-09-08T09:33:28;24.40;99.90
9998;DHT22;5038;53.064;8.624;2023-09-08T09:35:59;24.50;99.90
9998;DHT22;5038;53.064;8.624;2023-09-08T09:38:27;24.60;99.90
9998;DHT22;5038;53.064;8.624;2023-09-08T09:40:55;24.70;99.90
9998;DHT22;5038;53.064;8.624;2023-09-08T09:43:28;24.70;99.90
9998;DHT22;5038;53.064;8.624;2023-09-08T09:45:56;24.90;99.90
9998;DHT22;5038;53.064;8.624;2023-09-08T09:48:25;24.90;99.90
9998;DHT22;5038;53.064;8.624;2023-09-08T09:50:53;25.00;99.90
9998;DHT22;5038;53.064;8.624;2023-09-08T09:53:22;25.10;99.90
9998;DHT22;5038;53.064;8.624;2023-09-08T09:55:51;25.20;99.90
9998;DHT22;5038;53.064;8.624;2023-09-08T09:58:20;25.30;99.90
9998;DHT22;5038;53.064;8.624;2023-09-08T10:00:50;25.30;99.90
9998;DHT22;5038;53.064;8.624;2023-09-08T10:03:19;25.40;99.90
9998;DHT22;5038;53.064;8.624;2023-09-08T10:05:48;25.50;99.90
9998;DHT22;5038;53.064;8.624;2023-09-08T10:08:16;25.60;99.90
9998;DHT22;5038;53.064;8.624;2023-09-08T10:10:49;25.60;99.90
9998;DHT22;5038;53.064;8.624;2023-09-08T10:13:22;25.70;99.90
9998;DHT22;5038;53.064;8.624;2023-09-08T10:15:52;25.80;99.90
9998;DHT22;5038;53.064;8.624;2023-09-08T10:18:24;25.90;99.90
9998;DHT22;5038;53.064;8.624;2023-09-08T10:20:53;25.90;99.90
9998;DHT22;5038;53.064;8.624;2023-09-08T10:23:31;26.00;99.90
9998;DHT22;5038;53.064;8.624;2023-09-08T10:26:06;26.10;99.90
9998;DHT22;5038;53.064;8.624;2023-09-08T10:28:37;26.10;99.90
9998;DHT22;5038;53.064;8.624;2023-09-08T10:31:07;26.20;99.90
9998;DHT22;5038;53.064;8.624;2023-09-08T10:33:38;26.30;99.90
9998;DHT22;5038;53.064;8.624;2023-09-08T10:36:08;26.30;99.90
9998;DHT22;5038;53.064;8.624;2023-09-08T10:38:37;26.40;99.90
9998;DHT22;5038;53.064;8.624;2023-09-08T10:41:33;26.40;99.90
9998;DHT22;5038;53.064;8.624;2023-09-08T10:44:03;26.50;99.90
9998;DHT22;5038;53.064;8.624;2023-09-08T10:46:37;26.50;99.90
9998;DHT22;5038;53.064;8.624;2023-09-08T10:49:06;26.60;99.90
9998;DHT22;5038;53.064;8.624;2023-09-08T10:51:36;26.70;99.90
9998;DHT22;5038;53.064;8.624;2023-09-08T10:54:05;26.80;99.90
9998;DHT22;5038;53.064;8.624;2023-09-08T10:56:54;26.80;99.90
9998;DHT22;5038;53.064;8.624;2023-09-08T10:59:22;26.90;99.90
9998;DHT22;5038;53.064;8.624;2023-09-08T11:01:55;26.90;99.90
9998;DHT22;5038;53.064;8.624;2023-09-08T11:04:24;27.00;99.90
9998;DHT22;5038;53.064;8.624;2023-09-08T11:06:56;27.00;99.90
9998;DHT22;5038;53.064;8.624;2023-09-08T11:09:24;27.10;99.90
9998;DHT22;5038;53.064;8.624;2023-09-08T11:11:54;27.10;99.90
9998;DHT22;5038;53.064;8.624;2023-09-08T11:14:25;27.20;99.90
9998;DHT22;5038;53.064;8.624;2023-09-08T11:16:54;27.20;99.90
9998;DHT22;5038;53.064;8.624;2023-09-08T11:19:22;27.30;99.90
9998;DHT22;5038;53.064;8.624;2023-09-08T11:21:51;27.30;99.90
9998;DHT22;5038;53.064;8.624;2023-09-08T11:24:20;27.40;99.90
9998;DHT22;5038;53.064;8.624;2023-09-08T11:26:48;27.50;99.90
9998;DHT22;5038;53.064;8.624;2023-09-08T11:29:19;27.50;99.90
9998;DHT22;5038;53.064;8.624;2023-09-08T11:31:51;27.50;99.90
9998;DHT22;5038;53.064;8.624;2023-09-08T11:34:20;27.60;99.90
9998;DHT22;5038;53.064;8.624;2023-09-08T11:36:52;27.60;99.90
9998;DHT22;5038;53.064;8.624;2023-09-08T11:39:23;27.60;99.90
9998;DHT22;5038;53.064;8.624;2023-09-08T11:41:52;27.70;99.90
9998;DHT22;5038;53.064;8.624;2023-09-08T11:44:23;27.80;99.90
9998;DHT22;5038;53.064;8.624;2023-09-08T11:46:51;27.70;99.90
9998;DHT22;5038;53.064;8.624;2023-09-08T11:49:20;27.80;99.90
9998;DHT22;5038;53.064;8.624;2023-09-08T11:51:50;27.80;99.90
9998;DHT22;5038;53.064;8.624;2023-09-08T11:54:18;27.90;99.90
9998;DHT22;5038;53.064;8.624;2023-09-08T11:56:46;27.90;99.90
9998;DHT22;5038;53.064;8.624;2023-09-08T11:59:15;27.90;99.90
9998;DHT22;5038;53.064;8.624;2023-09-08T12:01:45;28.00;99.90
9998;DHT22;5038;53.064;8.624;2023-09-08T12:04:17;28.00;99.90
9998;DHT22;5038;53.064;8.624;2023-09-08T12:06:48;28.10;99.90
9998;DHT22;5038;53.064;8.624;2023-09-08T12:09:16;28.10;99.90
9998;DHT22;5038;53.064;8.624;2023-09-08T12:11:44;28.10;99.90
9998;DHT22;5038;53.064;8.624;2023-09-08T12:14:15;28.20;99.90
9998;DHT22;5038;53.064;8.624;2023-09-08T12:16:45;28.20;99.90
9998;DHT22;5038;53.064;8.624;2023-09-08T12:19:29;28.30;99.90
9998;DHT22;5038;53.064;8.624;2023-09-08T12:22:03;28.30;99.90
9998;DHT22;5038;53.064;8.624;2023-09-08T12:24:55;28.30;99.90
9998;DHT22;5038;53.064;8.624;2023-09-08T12:27:24;28.40;99.90
9998;DHT22;5038;53.064;8.624;2023-09-08T12:29:54;28.40;99.90
9998;DHT22;5038;53.064;8.624;2023-09-08T12:32:24;28.40;99.90
9998;DHT22;5038;53.064;8.624;2023-09-08T12:34:53;28.50;99.90
9998;DHT22;5038;53.064;8.624;2023-09-08T12:37:21;28.50;99.90
9998;DHT22;5038;53.064;8.624;2023-09-08T12:39:50;28.50;99.90
9998;DHT22;5038;53.064;8.624;2023-09-08T12:42:18;28.60;99.90
9998;DHT22;5038;53.064;8.624;2023-09-08T12:44:47;28.60;99.90
9998;DHT22;5038;53.064;8.624;2023-09-08T12:47:16;28.60;99.90
9998;DHT22;5038;53.064;8.624;2023-09-08T12:49:46;28.70;99.90
9998;DHT22;5038;53.064;8.624;2023-09-08T12:52:14;28.70;99.90
9998;DHT22;5038;53.064;8.624;2023-09-08T12:54:43;28.80;99.90
9998;DHT22;5038;53.064;8.624;2023-09-08T12:57:11;28.90;99.80
9998;DHT22;5038;53.064;8.624;2023-09-08T12:59:39;28.90;99.80
9998;DHT22;5038;53.064;8.624;2023-09-08T13:02:08;28.90;99.80
9998;DHT22;5038;53.064;8.624;2023-09-08T13:04:36;29.00;99.80
9998;DHT22;5038;53.064;8.624;2023-09-08T13:07:05;29.00;99.70
9998;DHT22;5038;53.064;8.624;2023-09-08T13:09:33;29.00;99.50
9998;DHT22;5038;53.064;8.624;2023-09-08T13:12:02;29.00;99.40
9998;DHT22;5038;53.064;8.624;2023-09-08T13:14:30;29.10;99.40
9998;DHT22;5038;53.064;8.624;2023-09-08T13:16:58;29.10;99.40
9998;DHT22;5038;53.064;8.624;2023-09-08T13:19:26;29.10;99.30
9998;DHT22;5038;53.064;8.624;2023-09-08T13:21:56;29.10;99.20
9998;DHT22;5038;53.064;8.624;2023-09-08T13:24:25;29.20;99.20
9998;DHT22;5038;53.064;8.624;2023-09-08T13:26:53;29.20;99.10
9998;DHT22;5038;53.064;8.624;2023-09-08T13:29:21;29.20;99.00
9998;DHT22;5038;53.064;8.624;2023-09-08T13:31:49;29.30;99.00
9998;DHT22;5038;53.064;8.624;2023-09-08T13:34:18;29.30;98.90
9998;DHT22;5038;53.064;8.624;2023-09-08T13:36:46;29.40;98.90
9998;DHT22;5038;53.064;8.624;2023-09-08T13:39:14;29.40;98.70
9998;DHT22;5038;53.064;8.624;2023-09-08T13:41:49;29.40;98.60
9998;DHT22;5038;53.064;8.624;2023-09-08T13:44:18;29.50;98.60
9998;DHT22;5038;53.064;8.624;2023-09-08T13:46:47;29.40;98.60
9998;DHT22;5038;53.064;8.624;2023-09-08T13:49:16;29.50;98.50
9998;DHT22;5038;53.064;8.624;2023-09-08T13:51:46;29.50;98.50
9998;DHT22;5038;53.064;8.624;2023-09-08T13:54:18;29.50;98.50
9998;DHT22;5038;53.064;8.624;2023-09-08T13:56:59;29.50;98.40
9998;DHT22;5038;53.064;8.624;2023-09-08T13:59:28;29.60;98.40
9998;DHT22;5038;53.064;8.624;2023-09-08T14:02:02;29.60;98.40
9998;DHT22;5038;53.064;8.624;2023-09-08T14:04:36;29.60;98.30
9998;DHT22;5038;53.064;8.624;2023-09-08T14:07:13;29.60;98.20
9998;DHT22;5038;53.064;8.624;2023-09-08T14:09:51;29.70;98.10
9998;DHT22;5038;53.064;8.624;2023-09-08T14:12:32;29.70;98.00
9998;DHT22;5038;53.064;8.624;2023-09-08T14:15:02;29.70;97.90
9998;DHT22;5038;53.064;8.624;2023-09-08T14:17:30;29.80;97.90
9998;DHT22;5038;53.064;8.624;2023-09-08T14:19:59;29.80;97.70
9998;DHT22;5038;53.064;8.624;2023-09-08T14:22:30;29.90;97.70
9998;DHT22;5038;53.064;8.624;2023-09-08T14:24:58;29.90;97.50
9998;DHT22;5038;53.064;8.624;2023-09-08T14:27:26;29.90;97.40
9998;DHT22;5038;53.064;8.624;2023-09-08T14:29:56;29.90;97.20
9998;DHT22;5038;53.064;8.624;2023-09-08T14:32:26;29.90;97.10
9998;DHT22;5038;53.064;8.624;2023-09-08T14:34:54;29.90;97.00
9998;DHT22;5038;53.064;8.624;2023-09-08T14:37:23;29.90;96.80
9998;DHT22;5038;53.064;8.624;2023-09-08T14:39:51;29.90;96.70
9998;DHT22;5038;53.064;8.624;2023-09-08T14:42:19;29.90;96.70
9998;DHT22;5038;53.064;8.624;2023-09-08T14:44:47;29.90;96.70
9998;DHT22;5038;53.064;8.624;2023-09-08T14:47:19;29.90;96.60
9998;DHT22;5038;53.064;8.624;2023-09-08T14:49:48;29.90;96.70
9998;DHT22;5038;53.064;8.624;2023-09-08T14:52:17;29.90;96.60
9998;DHT22;5038;53.064;8.624;2023-09-08T14:54:47;29.90;96.60
9998;DHT22;5038;53.064;8.624;2023-09-08T14:57:15;30.00;96.50
9998;DHT22;5038;53.064;8.624;2023-09-08T14:59:44;30.00;96.50
9998;DHT22;5038;53.064;8.624;2023-09-08T15:02:13;30.00;96.40
9998;DHT22;5038;53.064;8.624;2023-09-08T15:04:42;30.00;96.40
9998;DHT22;5038;53.064;8.624;2023-09-08T15:07:10;30.00;96.30
9998;DHT22;5038;53.064;8.624;2023-09-08T15:09:38;30.00;96.20
9998;DHT22;5038;53.064;8.624;2023-09-08T15:12:07;30.00;96.10
9998;DHT22;5038;53.064;8.624;2023-09-08T15:14:35;30.00;96.10
9998;DHT22;5038;53.064;8.624;2023-09-08T15:17:04;30.00;96.00
9998;DHT22;5038;53.064;8.624;2023-09-08T15:19:33;30.00;96.00
9998;DHT22;5038;53.064;8.624;2023-09-08T15:22:02;30.00;96.20
9998;DHT22;5038;53.064;8.624;2023-09-08T15:24:31;30.00;96.00
9998;DHT22;5038;53.064;8.624;2023-09-08T15:27:00;30.00;96.00
9998;DHT22;5038;53.064;8.624;2023-09-08T15:29:29;30.00;95.90
9998;DHT22;5038;53.064;8.624;2023-09-08T15:31:57;30.00;95.80
9998;DHT22;5038;53.064;8.624;2023-09-08T15:34:25;30.00;95.80
9998;DHT22;5038;53.064;8.624;2023-09-08T15:36:53;30.00;95.80
9998;DHT22;5038;53.064;8.624;2023-09-08T15:39:23;30.00;95.90
9998;DHT22;5038;53.064;8.624;2023-09-08T15:41:51;30.00;95.80
9998;DHT22;5038;53.064;8.624;2023-09-08T15:44:19;30.00;95.70
9998;DHT22;5038;53.064;8.624;2023-09-08T15:46:47;30.00;95.60
9998;DHT22;5038;53.064;8.624;2023-09-08T15:49:16;29.90;95.40
9998;DHT22;5038;53.064;8.624;2023-09-08T15:51:47;29.90;95.40
9998;DHT22;5038;53.064;8.624;2023-09-08T15:54:31;29.90;95.40
9998;DHT22;5038;53.064;8.624;2023-09-08T15:57:00;29.90;95.30
9998;DHT22;5038;53.064;8.624;2023-09-08T15:59:30;29.90;95.40
9998;DHT22;5038;53.064;8.624;2023-09-08T16:01:58;29.90;95.30
9998;DHT22;5038;53.064;8.624;2023-09-08T16:04:26;29.80;95.30
9998;DHT22;5038;53.064;8.624;2023-09-08T16:06:55;29.80;95.20
9998;DHT22;5038;53.064;8.624;2023-09-08T16:09:23;29.80;95.10
9998;DHT22;5038;53.064;8.624;2023-09-08T16:11:52;29.80;95.10
9998;DHT22;5038;53.064;8.624;2023-09-08T16:14:20;29.80;95.10
9998;DHT22;5038;53.064;8.624;2023-09-08T16:16:48;29.70;95.10
9998;DHT22;5038;53.064;8.624;2023-09-08T16:19:17;29.70;95.10
9998;DHT22;5038;53.064;8.624;2023-09-08T16:21:45;29.70;95.20